Time;durP1;ratioP1;P1;durP2;ratioP2;P2;SDS_P1;SDS_P2;PMS_P1;PMS_P2;Temp;Humidity;BMP_temperature;BMP_pressure;BME280_temperature;BME280_humidity;BME280_pressure;Samples;Min_cycle;Max_cycle;Signal;HPM_P1;HPM_P2
2022/10/22 00:02:40;;;;;;;4.63;2.57;;;15.50;99.90;;;;;;10427140;28;20222;-76
2022/10/22 00:07:41;;;;;;;5.63;2.30;;;15.50;99.90;;;;;;10431518;28;20600;-76
2022/10/22 00:12:42;;;;;;;5.03;2.03;;;15.50;99.90;;;;;;10436407;28;20293;-76
2022/10/22 00:17:42;;;;;;;4.90;2.43;;;15.60;99.90;;;;;;10429175;28;20230;-78
2022/10/22 00:22:43;;;;;;;5.00;2.33;;;15.60;99.90;;;;;;10443526;28;20224;-77
2022/10/22 00:27:44;;;;;;;4.80;2.27;;;15.70;99.90;;;;;;10423476;28;20284;-77
2022/10/22 00:32:44;;;;;;;5.00;2.00;;;15.60;99.90;;;;;;10437134;28;20227;-78
2022/10/22 00:37:45;;;;;;;5.00;1.73;;;15.60;99.90;;;;;;10434749;28;20223;-77
2022/10/22 00:42:45;;;;;;;7.63;2.03;;;15.60;99.90;;;;;;10432304;28;20694;-77
2022/10/22 00:48:06;;;;;;;4.67;1.93;;;15.50;99.90;;;;;;10432182;28;20234;-77
2022/10/22 00:53:12;;;;;;;7.20;1.80;;;15.50;99.90;;;;;;10435638;28;20223;-78
2022/10/22 00:58:14;;;;;;;3.30;1.87;;;15.40;99.90;;;;;;10433633;28;20223;-77
2022/10/22 01:03:16;;;;;;;5.53;1.97;;;15.40;99.90;;;;;;10402773;28;20314;-75
2022/10/22 01:08:45;;;;;;;2.80;1.57;;;15.30;99.90;;;;;;10411365;28;20251;-78
2022/10/22 01:14:08;;;;;;;6.97;1.70;;;15.20;99.90;;;;;;10438382;28;20589;-78
2022/10/22 01:19:11;;;;;;;4.17;1.70;;;15.20;99.90;;;;;;10424015;28;20223;-77
2022/10/22 01:24:25;;;;;;;2.07;1.40;;;15.20;99.90;;;;;;10394903;28;20227;-77
2022/10/22 01:29:36;;;;;;;2.63;1.40;;;15.20;99.90;;;;;;10424929;28;20309;-75
2022/10/22 01:34:40;;;;;;;2.60;1.17;;;15.20;99.90;;;;;;10394738;28;20251;-76
2022/10/22 01:39:44;;;;;;;6.70;1.57;;;15.10;99.90;;;;;;10423447;28;20234;-76
2022/10/22 01:44:49;;;;;;;2.27;1.20;;;15.10;99.90;;;;;;10428941;28;20219;-75
2022/10/22 01:50:06;;;;;;;4.03;1.43;;;15.00;99.90;;;;;;10388015;28;20321;-78
2022/10/22 01:55:54;;;;;;;3.87;1.50;;;14.90;99.90;;;;;;10439312;28;20273;-79
2022/10/22 02:01:28;;;;;;;1.47;1.10;;;14.80;99.90;;;;;;10427875;28;20227;-77
2022/10/22 02:06:31;;;;;;;3.67;1.03;;;14.70;99.90;;;;;;10403537;28;20588;-79
2022/10/22 02:11:32;;;;;;;3.03;1.00;;;14.60;99.90;;;;;;10423028;28;20214;-78
2022/10/22 02:16:48;;;;;;;1.90;1.00;;;14.50;99.90;;;;;;10408454;28;20245;-78
2022/10/22 02:21:48;;;;;;;3.17;1.00;;;14.50;99.90;;;;;;10440665;28;20248;-77
2022/10/22 02:27:04;;;;;;;1.50;1.20;;;14.40;99.90;;;;;;10422497;28;20238;-77
2022/10/22 02:32:08;;;;;;;3.60;1.00;;;14.50;99.90;;;;;;10392632;28;20716;-77
2022/10/22 02:37:09;;;;;;;5.03;1.37;;;14.50;99.90;;;;;;10394289;28;20229;-76
2022/10/22 02:42:11;;;;;;;4.00;1.20;;;14.50;99.90;;;;;;10395620;28;20245;-75
2022/10/22 02:47:12;;;;;;;1.40;1.00;;;14.50;99.90;;;;;;10394461;28;20763;-78
2022/10/22 02:52:12;;;;;;;2.90;1.13;;;14.40;99.90;;;;;;10393654;28;20223;-78
2022/10/22 02:57:13;;;;;;;2.23;1.00;;;14.40;99.90;;;;;;10419825;28;20233;-76
2022/10/22 03:02:14;;;;;;;5.10;1.00;;;14.40;99.90;;;;;;10439686;28;20575;-76
2022/10/22 03:07:14;;;;;;;1.43;0.90;;;14.40;99.90;;;;;;10434697;28;20273;-74
2022/10/22 03:12:15;;;;;;;1.90;0.90;;;14.40;99.90;;;;;;10425483;28;20219;-74
2022/10/22 03:17:16;;;;;;;1.83;0.90;;;14.30;99.90;;;;;;10426070;28;20223;-74
2022/10/22 03:22:26;;;;;;;2.53;1.03;;;14.30;99.90;;;;;;10432183;28;20246;-74
2022/10/22 03:27:28;;;;;;;1.87;1.43;;;14.30;99.90;;;;;;10436399;28;20248;-75
2022/10/22 03:32:28;;;;;;;3.17;1.10;;;14.30;99.90;;;;;;10439783;28;20229;-75
2022/10/22 03:37:29;;;;;;;2.50;0.93;;;14.30;99.90;;;;;;10441247;28;20218;-75
2022/10/22 03:42:30;;;;;;;1.33;0.90;;;14.20;99.90;;;;;;10429883;28;20223;-74
2022/10/22 03:47:31;;;;;;;4.77;1.23;;;14.20;99.90;;;;;;10426692;28;20231;-78
2022/10/22 03:52:36;;;;;;;5.20;1.40;;;14.20;99.90;;;;;;10438395;28;20580;-78
2022/10/22 03:57:37;;;;;;;2.57;1.10;;;14.20;99.90;;;;;;10425406;28;20227;-79
2022/10/22 04:02:38;;;;;;;2.90;1.00;;;14.30;99.90;;;;;;10433194;28;20685;-78
2022/10/22 04:07:38;;;;;;;3.50;1.00;;;14.30;99.90;;;;;;10434363;28;20266;-79
2022/10/22 04:12:39;;;;;;;2.70;0.93;;;14.40;99.90;;;;;;10438098;28;20683;-77
2022/10/22 04:17:39;;;;;;;3.30;1.07;;;14.40;99.90;;;;;;10425158;28;20628;-77
2022/10/22 04:22:40;;;;;;;2.90;1.10;;;14.40;99.90;;;;;;10431989;28;20781;-78
2022/10/22 04:27:41;;;;;;;1.10;0.90;;;14.40;99.90;;;;;;10437745;28;20322;-78
2022/10/22 04:32:44;;;;;;;1.77;0.80;;;14.50;99.90;;;;;;10430453;28;20229;-76
2022/10/22 04:37:45;;;;;;;2.43;1.20;;;14.50;99.90;;;;;;10431440;28;20871;-77
2022/10/22 04:42:46;;;;;;;1.60;0.90;;;14.50;99.90;;;;;;10427339;28;20222;-77
2022/10/22 04:47:46;;;;;;;3.77;0.97;;;14.50;99.90;;;;;;10439661;28;20215;-77
2022/10/22 04:52:47;;;;;;;1.53;0.70;;;14.50;99.90;;;;;;10427706;28;20234;-77
2022/10/22 04:57:48;;;;;;;3.37;0.90;;;14.40;99.90;;;;;;10436216;28;20218;-77
2022/10/22 05:02:49;;;;;;;4.17;0.90;;;14.40;99.90;;;;;;10434032;28;20307;-77
2022/10/22 05:07:50;;;;;;;3.90;1.20;;;14.30;99.90;;;;;;10428325;28;20234;-77
2022/10/22 05:12:51;;;;;;;1.63;1.00;;;14.20;99.90;;;;;;10439491;28;20696;-76
2022/10/22 05:17:51;;;;;;;3.60;0.93;;;14.10;99.90;;;;;;10430462;28;20224;-79
2022/10/22 05:22:52;;;;;;;2.93;0.90;;;14.10;99.90;;;;;;10430334;28;20225;-76
2022/10/22 05:27:53;;;;;;;1.43;0.80;;;14.10;99.90;;;;;;10433845;28;20612;-77
2022/10/22 05:32:53;;;;;;;1.90;1.10;;;14.30;99.90;;;;;;10433185;28;20231;-76
2022/10/22 05:37:54;;;;;;;2.57;0.90;;;14.30;99.90;;;;;;10433900;28;20266;-76
2022/10/22 05:42:55;;;;;;;5.67;0.70;;;14.40;99.90;;;;;;10431773;28;20224;-78
2022/10/22 05:47:55;;;;;;;1.17;0.70;;;14.50;99.90;;;;;;10451941;28;20233;-82
2022/10/22 05:52:57;;;;;;;2.77;0.70;;;14.50;99.90;;;;;;10429388;28;20238;-77
2022/10/22 05:57:57;;;;;;;5.20;0.80;;;14.60;99.90;;;;;;10442315;28;20237;-77
2022/10/22 06:02:58;;;;;;;2.77;1.00;;;14.60;99.90;;;;;;10451939;28;20273;-77
2022/10/22 06:08:01;;;;;;;5.10;1.00;;;14.60;99.90;;;;;;10411392;28;20230;-76
2022/10/22 06:13:06;;;;;;;0.97;0.80;;;14.70;99.90;;;;;;10445467;28;20231;-76
2022/10/22 06:18:06;;;;;;;3.50;0.90;;;14.70;99.90;;;;;;10442629;28;20310;-77
2022/10/22 06:23:07;;;;;;;1.60;0.93;;;14.70;99.90;;;;;;10448434;28;20611;-77
2022/10/22 06:28:08;;;;;;;1.83;0.80;;;14.80;99.90;;;;;;10451993;28;20748;-78
2022/10/22 06:33:11;;;;;;;1.53;0.83;;;14.80;99.90;;;;;;10460869;28;20226;-79
2022/10/22 06:38:12;;;;;;;3.23;0.70;;;14.80;99.90;;;;;;10449501;28;20214;-78
2022/10/22 06:43:14;;;;;;;4.70;0.83;;;14.80;99.90;;;;;;10450884;28;20291;-79
2022/10/22 06:48:14;;;;;;;5.30;0.73;;;14.80;99.90;;;;;;10440129;28;20234;-79
2022/10/22 06:53:15;;;;;;;1.97;0.90;;;14.70;99.90;;;;;;10436025;28;20234;-80
2022/10/22 06:58:15;;;;;;;1.13;0.70;;;14.70;99.90;;;;;;10435230;28;20275;-74
2022/10/22 07:03:16;;;;;;;5.40;0.97;;;14.60;99.90;;;;;;10449893;28;20253;-75
2022/10/22 07:08:19;;;;;;;2.80;1.20;;;15.10;99.90;;;;;;10447267;28;20946;-73
2022/10/22 07:13:20;;;;;;;1.60;0.70;;;15.60;99.90;;;;;;10434598;28;20277;-73
2022/10/22 07:18:21;;;;;;;1.23;0.70;;;16.40;99.90;;;;;;10442747;28;20244;-74
2022/10/22 07:23:22;;;;;;;3.33;0.73;;;17.00;99.90;;;;;;10429690;28;20228;-73
2022/10/22 07:28:22;;;;;;;1.03;0.50;;;17.80;99.90;;;;;;10439411;28;20302;-72
2022/10/22 07:33:23;;;;;;;1.60;0.60;;;18.90;99.90;;;;;;10403366;28;20242;-73
2022/10/22 07:38:24;;;;;;;2.03;0.67;;;20.20;99.90;;;;;;10427375;28;20221;-71
2022/10/22 07:43:26;;;;;;;0.90;0.80;;;22.30;99.90;;;;;;10437151;28;20224;-73
2022/10/22 07:48:28;;;;;;;1.63;0.80;;;24.90;99.90;;;;;;10439144;28;20242;-75
2022/10/22 07:53:28;;;;;;;2.37;0.80;;;27.60;99.90;;;;;;10418522;28;20250;-73
2022/10/22 07:58:30;;;;;;;0.80;0.60;;;29.60;89.50;;;;;;10434151;28;20294;-71
2022/10/22 08:03:31;;;;;;;1.70;1.00;;;30.90;73.60;;;;;;10439761;28;20221;-73
2022/10/22 08:08:33;;;;;;;1.53;0.60;;;32.00;64.40;;;;;;10441120;28;20851;-71
2022/10/22 08:13:34;;;;;;;2.33;0.70;;;32.70;58.60;;;;;;10439934;28;20220;-73
2022/10/22 08:18:34;;;;;;;2.90;0.50;;;33.10;56.30;;;;;;10441819;28;20230;-73
2022/10/22 08:23:35;;;;;;;2.07;0.70;;;33.30;53.80;;;;;;10441930;28;20226;-73
2022/10/22 08:28:38;;;;;;;4.73;0.80;;;33.70;52.40;;;;;;10443154;28;20227;-73
2022/10/22 08:33:39;;;;;;;2.03;0.60;;;34.50;50.60;;;;;;10439429;28;20240;-73
2022/10/22 08:38:40;;;;;;;2.13;0.67;;;35.00;48.80;;;;;;10425005;28;20208;-72
2022/10/22 08:43:50;;;;;;;3.53;0.60;;;34.90;48.30;;;;;;10423612;28;20223;-73
2022/10/22 08:48:57;;;;;;;1.17;0.40;;;34.80;46.50;;;;;;10414725;28;20216;-73
2022/10/22 08:54:14;;;;;;;2.97;0.80;;;34.70;46.20;;;;;;10411251;28;20224;-73
2022/10/22 08:59:44;;;;;;;2.83;0.90;;;35.30;45.50;;;;;;10415053;28;20331;-72
2022/10/22 09:04:52;;;;;;;1.43;0.90;;;35.30;44.80;;;;;;10414348;28;20220;-72
2022/10/22 09:09:54;;;;;;;5.23;1.17;;;35.30;46.00;;;;;;10410648;28;20621;-73
2022/10/22 09:14:55;;;;;;;2.50;0.77;;;35.50;45.40;;;;;;10407389;28;20257;-73
2022/10/22 09:20:25;;;;;;;6.77;0.70;;;36.30;44.00;;;;;;10383725;28;20311;-73
2022/10/22 09:25:28;;;;;;;1.57;0.57;;;36.60;43.60;;;;;;10434527;28;21721;-72
2022/10/22 09:30:32;;;;;;;2.60;0.50;;;36.50;42.00;;;;;;10448588;28;20224;-71
2022/10/22 09:35:55;;;;;;;1.63;0.90;;;36.30;42.00;;;;;;10449018;28;20324;-73
2022/10/22 09:40:58;;;;;;;2.63;0.80;;;36.70;42.40;;;;;;10448676;28;20232;-72
2022/10/22 09:46:02;;;;;;;3.10;0.60;;;37.10;41.20;;;;;;10438048;28;20224;-71
2022/10/22 09:51:11;;;;;;;13.23;1.70;;;37.20;41.60;;;;;;10440357;28;20213;-70
2022/10/22 09:56:34;;;;;;;3.50;1.30;;;37.40;40.80;;;;;;10447565;28;20323;-72
2022/10/22 10:01:37;;;;;;;2.73;1.10;;;37.20;41.10;;;;;;10446579;28;20224;-71
2022/10/22 10:06:40;;;;;;;1.77;0.80;;;37.10;40.80;;;;;;10446861;28;20696;-71
2022/10/22 10:11:49;;;;;;;3.03;1.10;;;36.50;41.60;;;;;;10442985;28;20259;-72
2022/10/22 10:17:17;;;;;;;2.77;1.20;;;36.90;41.90;;;;;;10441979;28;20748;-72
2022/10/22 10:22:39;;;;;;;2.40;0.93;;;36.30;42.30;;;;;;10444579;28;20329;-72
2022/10/22 10:27:46;;;;;;;7.43;2.97;;;37.30;41.10;;;;;;10445411;28;20228;-73
2022/10/22 10:32:50;;;;;;;3.50;1.10;;;37.40;40.90;;;;;;10447372;28;20358;-72
2022/10/22 10:38:05;;;;;;;5.33;2.00;;;38.30;39.50;;;;;;10443646;28;20770;-72
2022/10/22 10:43:31;;;;;;;3.03;1.50;;;38.50;38.80;;;;;;10442814;28;20227;-72
2022/10/22 10:48:32;;;;;;;2.37;0.93;;;36.30;41.90;;;;;;10438405;28;20251;-72
2022/10/22 10:54:04;;;;;;;3.63;1.93;;;32.90;46.30;;;;;;10447518;28;20661;-70
2022/10/22 10:59:24;;;;;;;3.13;1.53;;;29.90;52.60;;;;;;10444832;28;20762;-70
2022/10/22 11:04:43;;;;;;;3.90;0.87;;;27.50;57.40;;;;;;10441521;28;20265;-75
2022/10/22 11:09:54;;;;;;;2.87;1.10;;;25.90;62.00;;;;;;10433822;28;410447;-75
2022/10/22 11:15:05;;;;;;;2.70;1.00;;;24.80;66.50;;;;;;10447893;28;20651;-74
2022/10/22 11:20:29;;;;;;;9.27;1.10;;;24.20;69.60;;;;;;10443880;28;20568;-73
2022/10/22 11:25:38;;;;;;;4.73;1.07;;;24.30;71.40;;;;;;10446474;28;20589;-74
2022/10/22 11:30:44;;;;;;;2.97;1.10;;;24.40;71.40;;;;;;10440490;28;20212;-74
2022/10/22 11:35:46;;;;;;;3.83;1.30;;;24.30;71.20;;;;;;10418562;28;20243;-73
2022/10/22 11:40:49;;;;;;;4.23;1.80;;;23.80;73.20;;;;;;10448659;28;20713;-76
2022/10/22 11:46:25;;;;;;;2.77;1.10;;;23.60;75.30;;;;;;10445981;28;20660;-74
2022/10/22 11:51:35;;;;;;;1.90;1.03;;;23.60;75.50;;;;;;10444203;28;20215;-76
2022/10/22 11:56:37;;;;;;;3.53;1.10;;;23.60;76.70;;;;;;10444358;28;20242;-76
2022/10/22 12:01:46;;;;;;;3.87;1.03;;;23.60;76.90;;;;;;10444940;28;20233;-75
2022/10/22 12:06:59;;;;;;;2.50;1.03;;;23.50;77.90;;;;;;10442664;28;20230;-76
2022/10/22 12:12:15;;;;;;;2.57;1.10;;;23.30;78.50;;;;;;10445077;28;20249;-79
2022/10/22 12:17:16;;;;;;;4.33;1.57;;;23.30;80.10;;;;;;10445885;28;20266;-74
2022/10/22 12:22:22;;;;;;;4.47;1.40;;;22.90;81.40;;;;;;10441040;28;20223;-73
2022/10/22 12:27:33;;;;;;;7.33;1.30;;;22.20;84.60;;;;;;10444873;28;20222;-75
2022/10/22 12:32:40;;;;;;;4.03;1.20;;;21.70;88.70;;;;;;10441881;28;20220;-76
2022/10/22 12:37:41;;;;;;;5.77;1.10;;;21.40;90.20;;;;;;10435168;28;20244;-73
2022/10/22 12:42:53;;;;;;;6.53;1.30;;;21.40;91.50;;;;;;10419977;28;20313;-74
2022/10/22 12:47:59;;;;;;;3.40;1.43;;;21.30;92.10;;;;;;10414041;28;20264;-76
2022/10/22 12:52:59;;;;;;;3.83;1.20;;;21.30;93.50;;;;;;10404439;28;20228;-77
2022/10/22 12:58:05;;;;;;;6.73;1.27;;;21.30;94.20;;;;;;10414623;28;20212;-75
2022/10/22 13:03:06;;;;;;;4.70;1.37;;;21.10;95.40;;;;;;10409988;28;20691;-74
2022/10/22 13:08:16;;;;;;;8.33;1.53;;;21.00;96.10;;;;;;10417234;28;20229;-76
2022/10/22 13:13:44;;;;;;;8.10;1.20;;;20.90;97.40;;;;;;10419018;28;20709;-74
2022/10/22 13:18:46;;;;;;;5.77;1.27;;;20.90;98.90;;;;;;10417501;28;20229;-78
2022/10/22 13:23:56;;;;;;;2.83;0.90;;;20.80;99.90;;;;;;10440668;28;20212;-76
2022/10/22 13:29:01;;;;;;;2.03;0.80;;;20.80;99.90;;;;;;10442414;28;20221;-74
2022/10/22 13:34:05;;;;;;;4.67;1.10;;;21.00;99.90;;;;;;10442720;28;20227;-75
2022/10/22 13:39:07;;;;;;;3.87;1.10;;;21.00;99.90;;;;;;10440008;28;20222;-74
2022/10/22 13:44:08;;;;;;;4.57;1.40;;;21.00;99.90;;;;;;10441703;28;20645;-75
2022/10/22 13:49:21;;;;;;;5.50;1.17;;;21.00;99.90;;;;;;10443084;28;20226;-75
2022/10/22 13:54:23;;;;;;;6.13;1.30;;;20.80;99.90;;;;;;10441902;28;20287;-76
2022/10/22 13:59:24;;;;;;;4.30;1.33;;;20.80;99.90;;;;;;10445213;28;20220;-74
2022/10/22 14:04:25;;;;;;;6.50;1.50;;;20.80;99.90;;;;;;10450311;28;20221;-77
2022/10/22 14:09:25;;;;;;;4.30;1.50;;;20.90;99.90;;;;;;10464298;28;20653;-73
2022/10/22 14:14:26;;;;;;;4.83;1.10;;;21.00;99.90;;;;;;10450623;28;20287;-73
2022/10/22 14:19:27;;;;;;;4.07;1.17;;;20.90;99.90;;;;;;10450390;28;20632;-75
2022/10/22 14:24:28;;;;;;;5.27;1.17;;;20.80;99.90;;;;;;10410072;28;20620;-72
2022/10/22 14:29:28;;;;;;;3.70;1.20;;;20.70;99.90;;;;;;10412678;28;20217;-77
2022/10/22 14:34:29;;;;;;;4.87;1.10;;;20.50;99.90;;;;;;10430740;28;20257;-74
2022/10/22 14:39:29;;;;;;;2.67;1.00;;;20.30;99.90;;;;;;10439873;28;20328;-71
2022/10/22 14:44:30;;;;;;;2.90;1.23;;;20.10;99.90;;;;;;10446844;28;20220;-73
2022/10/22 14:49:31;;;;;;;6.07;1.57;;;20.00;99.90;;;;;;10447585;28;20223;-72
2022/10/22 14:54:34;;;;;;;4.33;1.50;;;19.90;99.90;;;;;;10448583;28;20263;-71
2022/10/22 14:59:34;;;;;;;4.53;1.30;;;19.90;99.90;;;;;;10447015;28;20730;-72
2022/10/22 15:04:35;;;;;;;3.40;1.17;;;19.90;99.90;;;;;;10448908;28;20223;-71
2022/10/22 15:09:36;;;;;;;4.77;1.40;;;20.00;99.90;;;;;;10447275;28;20332;-73
2022/10/22 15:14:36;;;;;;;6.80;1.50;;;19.90;99.90;;;;;;10432216;28;20257;-72
2022/10/22 15:19:37;;;;;;;5.17;1.40;;;19.90;99.90;;;;;;10403728;28;20222;-71
2022/10/22 15:24:39;;;;;;;2.53;1.10;;;19.70;99.90;;;;;;10406135;28;20224;-74
2022/10/22 15:29:41;;;;;;;6.17;1.70;;;19.50;99.90;;;;;;10420429;28;20222;-73
2022/10/22 15:34:41;;;;;;;6.10;1.60;;;19.30;99.90;;;;;;10442350;28;20706;-72
2022/10/22 15:39:42;;;;;;;4.53;1.70;;;19.00;99.90;;;;;;10445233;28;20208;-73
2022/10/22 15:44:43;;;;;;;3.93;1.50;;;18.90;99.90;;;;;;10443680;28;20221;-72
2022/10/22 15:49:44;;;;;;;4.17;1.60;;;18.70;99.90;;;;;;10444912;28;20216;-73
2022/10/22 15:54:45;;;;;;;8.07;1.73;;;18.50;99.90;;;;;;10446035;28;20223;-74
2022/10/22 15:59:46;;;;;;;6.27;2.20;;;18.30;99.90;;;;;;10444720;28;20574;-74
2022/10/22 16:04:46;;;;;;;4.50;1.73;;;18.10;99.90;;;;;;10423611;28;20638;-74
2022/10/22 16:09:47;;;;;;;4.33;1.60;;;17.90;99.90;;;;;;10442468;28;20212;-75
2022/10/22 16:14:51;;;;;;;2.80;1.23;;;17.70;99.90;;;;;;10445129;28;20318;-74
2022/10/22 16:19:51;;;;;;;3.47;1.60;;;17.60;99.90;;;;;;10441617;28;20236;-75
2022/10/22 16:24:52;;;;;;;3.67;1.40;;;17.50;99.90;;;;;;10441448;28;20779;-75
2022/10/22 16:29:52;;;;;;;3.77;2.00;;;17.30;99.90;;;;;;10442074;28;20224;-73
2022/10/22 16:34:53;;;;;;;5.10;2.30;;;17.10;99.90;;;;;;10442465;28;20228;-72
2022/10/22 16:39:54;;;;;;;3.77;1.87;;;16.90;99.90;;;;;;10445352;28;20315;-76
2022/10/22 16:44:57;;;;;;;6.27;2.30;;;16.80;99.90;;;;;;10441095;28;20301;-75
2022/10/22 16:49:59;;;;;;;11.17;2.80;;;16.60;99.90;;;;;;10442103;28;20216;-74
2022/10/22 16:55:00;;;;;;;3.90;2.10;;;16.60;99.90;;;;;;10443984;28;20223;-74
2022/10/22 17:00:02;;;;;;;4.17;2.00;;;16.60;99.90;;;;;;10441757;28;20699;-76
2022/10/22 17:05:03;;;;;;;8.80;2.77;;;16.60;99.90;;;;;;10433709;28;20219;-74
2022/10/22 17:10:07;;;;;;;4.03;2.60;;;16.60;99.90;;;;;;10444193;28;20300;-75
2022/10/22 17:15:08;;;;;;;5.80;2.70;;;16.50;99.90;;;;;;10442930;28;20227;-74
2022/10/22 17:20:10;;;;;;;5.37;3.10;;;16.40;99.90;;;;;;10443895;28;20194;-74
2022/10/22 17:25:18;;;;;;;9.30;5.73;;;16.30;99.90;;;;;;10441037;28;20184;-74
2022/10/22 17:30:20;;;;;;;7.53;3.93;;;16.30;99.90;;;;;;10442518;28;20188;-74
2022/10/22 17:35:20;;;;;;;7.73;4.07;;;16.20;99.90;;;;;;10448955;28;20238;-75
2022/10/22 17:40:21;;;;;;;7.67;4.43;;;16.20;99.90;;;;;;10450307;28;20198;-74
2022/10/22 17:45:22;;;;;;;9.13;3.70;;;16.10;99.90;;;;;;10451339;28;20245;-75
2022/10/22 17:50:23;;;;;;;7.30;4.00;;;15.90;99.90;;;;;;10449997;28;20868;-74
2022/10/22 17:55:23;;;;;;;5.70;3.90;;;15.80;99.90;;;;;;10447449;28;20269;-76
2022/10/22 18:00:24;;;;;;;6.13;3.47;;;15.70;99.90;;;;;;10450119;28;20235;-77
2022/10/22 18:05:25;;;;;;;6.47;3.67;;;15.60;99.90;;;;;;10448446;28;20224;-76
2022/10/22 18:10:25;;;;;;;8.23;4.07;;;15.50;99.90;;;;;;10450490;28;20242;-75
2022/10/22 18:15:26;;;;;;;8.73;4.63;;;15.40;99.90;;;;;;10447395;28;20955;-76
2022/10/22 18:20:26;;;;;;;8.37;4.77;;;15.40;99.90;;;;;;10430180;28;20247;-76
2022/10/22 18:25:27;;;;;;;6.83;4.50;;;15.30;99.90;;;;;;10448995;28;20223;-75
2022/10/22 18:30:28;;;;;;;16.47;10.07;;;15.20;99.90;;;;;;10447287;28;20670;-78
2022/10/22 18:35:31;;;;;;;21.33;12.80;;;15.20;99.90;;;;;;10445560;28;20234;-72
2022/10/22 18:40:32;;;;;;;11.20;6.87;;;15.20;99.90;;;;;;10447141;28;20228;-73
2022/10/22 18:45:32;;;;;;;14.13;7.43;;;15.10;99.90;;;;;;10447534;28;20281;-74
2022/10/22 18:50:33;;;;;;;13.93;6.60;;;15.00;99.90;;;;;;10448261;28;20242;-73
2022/10/22 18:55:37;;;;;;;12.57;6.30;;;15.00;99.90;;;;;;10448125;28;20261;-72
2022/10/22 19:00:38;;;;;;;10.90;6.90;;;14.90;99.90;;;;;;10447346;28;20236;-72
2022/10/22 19:05:45;;;;;;;14.07;7.80;;;14.80;99.90;;;;;;10448269;28;20817;-73
2022/10/22 19:10:46;;;;;;;14.57;9.30;;;14.80;99.90;;;;;;10448484;28;20699;-71
2022/10/22 19:15:47;;;;;;;14.77;9.20;;;14.70;99.90;;;;;;10447792;28;20243;-70
2022/10/22 19:20:57;;;;;;;15.87;9.27;;;14.60;99.90;;;;;;10446726;28;20226;-75
2022/10/22 19:26:13;;;;;;;17.10;9.57;;;14.60;99.90;;;;;;10447648;28;20703;-74
2022/10/22 19:31:18;;;;;;;16.30;9.07;;;14.60;99.90;;;;;;10443124;28;20314;-75
2022/10/22 19:36:19;;;;;;;12.03;8.60;;;14.60;99.90;;;;;;10444051;28;20593;-75
2022/10/22 19:41:21;;;;;;;14.83;8.57;;;14.60;99.90;;;;;;10447303;28;20212;-75
2022/10/22 19:46:24;;;;;;;15.17;8.37;;;14.50;99.90;;;;;;10443369;28;20230;-75
2022/10/22 19:51:28;;;;;;;12.77;9.33;;;14.50;99.90;;;;;;10443958;28;20634;-77
2022/10/22 19:56:31;;;;;;;14.50;7.70;;;14.40;99.90;;;;;;10432165;28;20262;-76
2022/10/22 20:01:31;;;;;;;11.00;8.23;;;14.40;99.90;;;;;;10423466;28;20231;-75
2022/10/22 20:06:32;;;;;;;10.60;6.93;;;14.30;99.90;;;;;;10433509;28;20241;-75
2022/10/22 20:11:36;;;;;;;17.30;7.30;;;14.40;99.90;;;;;;10416328;28;20224;-75
2022/10/22 20:16:37;;;;;;;11.80;8.00;;;14.40;99.90;;;;;;10397227;28;20242;-74
2022/10/22 20:21:39;;;;;;;13.13;7.63;;;14.40;99.90;;;;;;10396044;28;20226;-74
2022/10/22 20:26:39;;;;;;;15.40;7.10;;;14.40;99.90;;;;;;10414565;28;20228;-74
2022/10/22 20:31:40;;;;;;;10.37;6.57;;;14.40;99.90;;;;;;10396612;28;20229;-74
2022/10/22 20:36:41;;;;;;;7.60;5.77;;;14.30;99.90;;;;;;10405268;28;20252;-75
2022/10/22 20:41:42;;;;;;;9.83;6.73;;;14.30;99.90;;;;;;10430715;28;20710;-75
2022/10/22 20:46:43;;;;;;;8.63;6.23;;;14.30;99.90;;;;;;10439629;28;20233;-76
2022/10/22 20:51:44;;;;;;;10.50;6.60;;;14.30;99.90;;;;;;10438639;28;20704;-76
2022/10/22 20:56:46;;;;;;;10.80;6.53;;;14.20;99.90;;;;;;10423058;28;20247;-75
2022/10/22 21:01:52;;;;;;;10.27;6.20;;;14.10;99.90;;;;;;10428124;28;20228;-76
2022/10/22 21:06:56;;;;;;;10.17;6.67;;;14.10;99.90;;;;;;10431450;28;20281;-76
2022/10/22 21:12:01;;;;;;;12.20;6.50;;;14.10;99.90;;;;;;10440027;28;20230;-75
2022/10/22 21:17:02;;;;;;;10.70;7.30;;;14.10;99.90;;;;;;10445856;28;20223;-75
2022/10/22 21:22:03;;;;;;;10.10;5.67;;;14.10;99.90;;;;;;10446825;28;20223;-74
2022/10/22 21:27:05;;;;;;;11.43;5.77;;;14.10;99.90;;;;;;10449035;28;20212;-75
2022/10/22 21:32:06;;;;;;;9.03;5.43;;;14.00;99.90;;;;;;10446900;28;20772;-75
2022/10/22 21:37:06;;;;;;;10.17;5.30;;;14.00;99.90;;;;;;10446717;28;20215;-74
2022/10/22 21:42:07;;;;;;;7.80;4.80;;;13.90;99.90;;;;;;10444425;28;20924;-76
2022/10/22 21:47:08;;;;;;;6.37;4.40;;;13.80;99.90;;;;;;10443622;28;20243;-76
2022/10/22 21:52:08;;;;;;;6.87;4.47;;;13.80;99.90;;;;;;10432059;28;20286;-75
2022/10/22 21:57:09;;;;;;;8.03;4.17;;;13.80;99.90;;;;;;10444462;28;20239;-76
2022/10/22 22:02:09;;;;;;;7.80;4.50;;;13.70;99.90;;;;;;10444190;28;20231;-75
2022/10/22 22:07:10;;;;;;;7.63;4.40;;;13.70;99.90;;;;;;10431306;28;20225;-75
2022/10/22 22:12:13;;;;;;;9.13;4.10;;;13.60;99.90;;;;;;10449386;28;20647;-75
2022/10/22 22:17:17;;;;;;;11.33;3.87;;;13.50;99.90;;;;;;10437939;28;20228;-76
2022/10/22 22:22:18;;;;;;;8.33;3.83;;;13.40;99.90;;;;;;10436948;28;20208;-76
2022/10/22 22:27:18;;;;;;;5.67;3.60;;;13.40;99.90;;;;;;10440505;28;20653;-76
2022/10/22 22:32:19;;;;;;;6.27;4.10;;;13.40;99.90;;;;;;10433022;28;20692;-75
2022/10/22 22:37:19;;;;;;;6.63;4.23;;;13.30;99.90;;;;;;10437532;28;20270;-75
2022/10/22 22:42:20;;;;;;;8.57;4.17;;;13.30;99.90;;;;;;10436222;28;20626;-74
2022/10/22 22:47:20;;;;;;;8.17;4.20;;;13.20;99.90;;;;;;10443544;28;20239;-75
2022/10/22 22:52:21;;;;;;;8.80;4.00;;;13.10;99.90;;;;;;10436376;28;20218;-76
2022/10/22 22:57:21;;;;;;;6.57;4.03;;;13.00;99.90;;;;;;10443229;28;20235;-74
2022/10/22 23:02:22;;;;;;;9.20;4.10;;;12.90;99.90;;;;;;10435624;28;20216;-75
2022/10/22 23:07:22;;;;;;;7.33;4.00;;;12.90;99.90;;;;;;10441320;28;20216;-76
2022/10/22 23:12:23;;;;;;;6.57;3.80;;;12.80;99.90;;;;;;10430901;28;20616;-76
2022/10/22 23:17:24;;;;;;;9.13;4.47;;;12.80;99.90;;;;;;10442873;28;20311;-74
2022/10/22 23:22:24;;;;;;;9.40;4.00;;;12.80;99.90;;;;;;10434989;28;20586;-75
2022/10/22 23:27:25;;;;;;;7.33;4.23;;;12.70;99.90;;;;;;10436076;28;20695;-75
2022/10/22 23:32:25;;;;;;;10.53;3.87;;;12.60;99.90;;;;;;10433795;28;20223;-75
2022/10/22 23:37:26;;;;;;;5.40;4.07;;;12.60;99.90;;;;;;10437350;28;20320;-75
2022/10/22 23:42:26;;;;;;;8.53;3.53;;;12.50;99.90;;;;;;10433589;28;20237;-74
2022/10/22 23:47:27;;;;;;;7.27;3.83;;;12.50;99.90;;;;;;10434069;28;20590;-74
2022/10/22 23:52:27;;;;;;;5.83;3.73;;;12.40;99.90;;;;;;10432390;28;20247;-75
2022/10/22 23:57:28;;;;;;;7.03;3.67;;;12.40;99.90;;;;;;10426742;28;20285;-76
